sensor_id;sensor_type;location;lat;lon;timestamp;pressure;altitude;pressure_sealevel;temperature;humidity
58367;BME280;57745;42.524;12.052;2023-03-14T00:00:13;96290.22;;;16.17;49.18
58367;BME280;57745;42.524;12.052;2023-03-14T00:02:39;96284.50;;;16.30;48.59
58367;BME280;57745;42.524;12.052;2023-03-14T00:05:06;96277.16;;;16.12;49.00
58367;BME280;57745;42.524;12.052;2023-03-14T00:07:33;96273.34;;;16.19;48.26
58367;BME280;57745;42.524;12.052;2023-03-14T00:10:04;96273.50;;;16.15;48.33
58367;BME280;57745;42.524;12.052;2023-03-14T00:12:31;96270.88;;;16.21;48.63
58367;BME280;57745;42.524;12.052;2023-03-14T00:14:57;96266.44;;;16.24;48.17
58367;BME280;57745;42.524;12.052;2023-03-14T00:17:22;96263.13;;;16.20;48.04
58367;BME280;57745;42.524;12.052;2023-03-14T00:19:48;96255.97;;;16.22;47.93
58367;BME280;57745;42.524;12.052;2023-03-14T00:22:17;96259.91;;;16.21;48.02
58367;BME280;57745;42.524;12.052;2023-03-14T00:24:42;96255.50;;;16.24;47.28
58367;BME280;57745;42.524;12.052;2023-03-14T00:27:09;96255.03;;;16.25;47.71
58367;BME280;57745;42.524;12.052;2023-03-14T00:29:35;96246.47;;;16.08;48.01
58367;BME280;57745;42.524;12.052;2023-03-14T00:32:00;96242.88;;;16.02;48.11
58367;BME280;57745;42.524;12.052;2023-03-14T00:34:29;96232.38;;;16.25;47.22
58367;BME280;57745;42.524;12.052;2023-03-14T00:36:55;96222.34;;;16.07;47.79
58367;BME280;57745;42.524;12.052;2023-03-14T00:39:20;96223.59;;;16.21;47.49
58367;BME280;57745;42.524;12.052;2023-03-14T00:41:45;96219.59;;;16.31;47.00
58367;BME280;57745;42.524;12.052;2023-03-14T00:44:11;96209.91;;;16.21;46.90
58367;BME280;57745;42.524;12.052;2023-03-14T00:46:37;96214.38;;;16.18;47.15
58367;BME280;57745;42.524;12.052;2023-03-14T00:49:02;96206.31;;;16.14;47.10
58367;BME280;57745;42.524;12.052;2023-03-14T00:51:27;96198.97;;;16.21;47.08
58367;BME280;57745;42.524;12.052;2023-03-14T00:53:53;96201.69;;;16.21;46.97
58367;BME280;57745;42.524;12.052;2023-03-14T00:56:18;96194.03;;;16.10;46.87
58367;BME280;57745;42.524;12.052;2023-03-14T00:58:44;96176.16;;;16.24;46.69
58367;BME280;57745;42.524;12.052;2023-03-14T01:01:12;96155.41;;;16.17;47.52
58367;BME280;57745;42.524;12.052;2023-03-14T01:03:38;96155.00;;;16.09;47.53
58367;BME280;57745;42.524;12.052;2023-03-14T01:08:35;96162.34;;;16.03;47.10
58367;BME280;57745;42.524;12.052;2023-03-14T01:11:05;96155.56;;;16.13;47.40
58367;BME280;57745;42.524;12.052;2023-03-14T01:13:31;96152.84;;;16.13;47.34
58367;BME280;57745;42.524;12.052;2023-03-14T01:16:02;96141.78;;;16.08;47.28
58367;BME280;57745;42.524;12.052;2023-03-14T01:18:27;96124.06;;;16.03;47.68
58367;BME280;57745;42.524;12.052;2023-03-14T01:20:53;96121.06;;;16.16;47.35
58367;BME280;57745;42.524;12.052;2023-03-14T01:23:18;96122.44;;;16.11;47.49
58367;BME280;57745;42.524;12.052;2023-03-14T01:25:43;96124.59;;;16.07;47.68
58367;BME280;57745;42.524;12.052;2023-03-14T01:28:09;96115.47;;;16.10;47.58
58367;BME280;57745;42.524;12.052;2023-03-14T01:30:36;96102.63;;;16.02;48.08
58367;BME280;57745;42.524;12.052;2023-03-14T01:33:02;96093.09;;;15.97;48.09
58367;BME280;57745;42.524;12.052;2023-03-14T01:35:27;96086.97;;;15.88;48.76
58367;BME280;57745;42.524;12.052;2023-03-14T01:37:52;96091.69;;;16.02;48.68
58367;BME280;57745;42.524;12.052;2023-03-14T01:40:18;96087.75;;;16.03;49.31
58367;BME280;57745;42.524;12.052;2023-03-14T01:42:54;96079.72;;;15.99;49.25
58367;BME280;57745;42.524;12.052;2023-03-14T01:48:42;96073.31;;;16.02;49.77
58367;BME280;57745;42.524;12.052;2023-03-14T01:51:15;96075.38;;;16.07;49.75
58367;BME280;57745;42.524;12.052;2023-03-14T01:53:43;96067.34;;;15.89;50.34
58367;BME280;57745;42.524;12.052;2023-03-14T01:56:11;96072.09;;;16.03;50.24
58367;BME280;57745;42.524;12.052;2023-03-14T01:58:39;96071.06;;;16.15;49.94
58367;BME280;57745;42.524;12.052;2023-03-14T02:01:06;96074.44;;;16.10;50.04
58367;BME280;57745;42.524;12.052;2023-03-14T02:03:38;96070.28;;;16.15;50.17
58367;BME280;57745;42.524;12.052;2023-03-14T02:06:10;96063.69;;;16.22;50.17
58367;BME280;57745;42.524;12.052;2023-03-14T02:08:37;96060.75;;;15.96;50.81
58367;BME280;57745;42.524;12.052;2023-03-14T02:11:05;96045.28;;;16.07;50.81
58367;BME280;57745;42.524;12.052;2023-03-14T02:13:32;96033.03;;;16.03;50.71
58367;BME280;57745;42.524;12.052;2023-03-14T02:15:58;96020.56;;;15.87;50.85
58367;BME280;57745;42.524;12.052;2023-03-14T02:18:23;96017.84;;;16.02;50.89
58367;BME280;57745;42.524;12.052;2023-03-14T02:20:53;96013.59;;;16.01;51.07
58367;BME280;57745;42.524;12.052;2023-03-14T02:23:31;96019.44;;;16.08;50.67
58367;BME280;57745;42.524;12.052;2023-03-14T02:26:05;96008.22;;;16.06;51.04
58367;BME280;57745;42.524;12.052;2023-03-14T02:28:33;95997.66;;;15.99;51.01
58367;BME280;57745;42.524;12.052;2023-03-14T02:30:58;95987.66;;;15.96;51.06
58367;BME280;57745;42.524;12.052;2023-03-14T02:33:24;95975.41;;;16.06;50.93
58367;BME280;57745;42.524;12.052;2023-03-14T02:36:00;95976.25;;;15.83;51.26
58367;BME280;57745;42.524;12.052;2023-03-14T02:40:56;95963.53;;;15.95;51.18
58367;BME280;57745;42.524;12.052;2023-03-14T02:43:22;95962.28;;;15.96;51.14
58367;BME280;57745;42.524;12.052;2023-03-14T02:45:49;95950.22;;;15.88;51.39
58367;BME280;57745;42.524;12.052;2023-03-14T02:48:24;95952.09;;;15.96;50.97
58367;BME280;57745;42.524;12.052;2023-03-14T02:50:54;95949.88;;;15.80;51.45
58367;BME280;57745;42.524;12.052;2023-03-14T02:53:24;95945.63;;;15.79;51.46
58367;BME280;57745;42.524;12.052;2023-03-14T02:55:50;95943.34;;;15.92;51.08
58367;BME280;57745;42.524;12.052;2023-03-14T02:58:17;95940.81;;;15.89;50.98
58367;BME280;57745;42.524;12.052;2023-03-14T03:00:43;95931.09;;;15.88;51.17
58367;BME280;57745;42.524;12.052;2023-03-14T03:03:08;95929.97;;;15.94;50.99
58367;BME280;57745;42.524;12.052;2023-03-14T03:05:34;95922.31;;;15.98;50.86
58367;BME280;57745;42.524;12.052;2023-03-14T03:08:00;95921.66;;;15.89;51.30
58367;BME280;57745;42.524;12.052;2023-03-14T03:10:26;95916.09;;;15.83;51.07
58367;BME280;57745;42.524;12.052;2023-03-14T03:12:51;95917.78;;;15.95;50.98
58367;BME280;57745;42.524;12.052;2023-03-14T03:15:17;95923.34;;;15.86;50.72
58367;BME280;57745;42.524;12.052;2023-03-14T03:17:43;95932.50;;;15.83;51.22
58367;BME280;57745;42.524;12.052;2023-03-14T03:20:09;95930.22;;;15.96;50.58
58367;BME280;57745;42.524;12.052;2023-03-14T03:22:36;95935.03;;;15.72;51.36
58367;BME280;57745;42.524;12.052;2023-03-14T03:25:03;95934.22;;;15.66;51.02
58367;BME280;57745;42.524;12.052;2023-03-14T03:27:30;95921.66;;;15.89;50.08
58367;BME280;57745;42.524;12.052;2023-03-14T03:29:57;95915.44;;;15.88;50.40
58367;BME280;57745;42.524;12.052;2023-03-14T03:32:22;95906.88;;;15.66;50.81
58367;BME280;57745;42.524;12.052;2023-03-14T03:34:48;95905.38;;;15.79;50.39
58367;BME280;57745;42.524;12.052;2023-03-14T03:37:13;95900.72;;;15.71;50.76
58367;BME280;57745;42.524;12.052;2023-03-14T03:39:39;95894.22;;;15.83;50.50
58367;BME280;57745;42.524;12.052;2023-03-14T03:42:04;95880.94;;;15.76;50.53
58367;BME280;57745;42.524;12.052;2023-03-14T03:44:30;95884.16;;;15.60;50.83
58367;BME280;57745;42.524;12.052;2023-03-14T03:46:55;95874.81;;;15.81;50.45
58367;BME280;57745;42.524;12.052;2023-03-14T03:49:21;95869.72;;;15.74;50.75
58367;BME280;57745;42.524;12.052;2023-03-14T03:51:46;95858.72;;;15.68;50.95
58367;BME280;57745;42.524;12.052;2023-03-14T03:54:12;95864.41;;;16.00;50.43
58367;BME280;57745;42.524;12.052;2023-03-14T03:56:38;95865.47;;;15.88;50.35
58367;BME280;57745;42.524;12.052;2023-03-14T03:59:03;95871.41;;;15.71;50.82
58367;BME280;57745;42.524;12.052;2023-03-14T04:01:28;95859.81;;;15.91;50.76
58367;BME280;57745;42.524;12.052;2023-03-14T04:03:54;95858.91;;;15.65;51.30
58367;BME280;57745;42.524;12.052;2023-03-14T04:06:19;95855.94;;;15.83;50.74
58367;BME280;57745;42.524;12.052;2023-03-14T04:08:45;95835.88;;;15.71;51.14
58367;BME280;57745;42.524;12.052;2023-03-14T04:11:10;95843.91;;;15.75;51.00
58367;BME280;57745;42.524;12.052;2023-03-14T04:13:36;95845.13;;;15.74;50.76
58367;BME280;57745;42.524;12.052;2023-03-14T04:16:01;95838.53;;;15.80;50.97
58367;BME280;57745;42.524;12.052;2023-03-14T04:18:27;95832.50;;;15.76;50.45
58367;BME280;57745;42.524;12.052;2023-03-14T04:20:57;95838.16;;;15.58;51.03
58367;BME280;57745;42.524;12.052;2023-03-14T04:23:23;95839.13;;;15.70;50.71
58367;BME280;57745;42.524;12.052;2023-03-14T04:25:52;95820.44;;;15.68;50.17
58367;BME280;57745;42.524;12.052;2023-03-14T04:28:18;95824.19;;;15.71;50.01
58367;BME280;57745;42.524;12.052;2023-03-14T04:30:43;95818.00;;;15.41;50.56
58367;BME280;57745;42.524;12.052;2023-03-14T04:33:09;95807.16;;;15.46;50.93
58367;BME280;57745;42.524;12.052;2023-03-14T04:35:35;95811.13;;;15.60;50.39
58367;BME280;57745;42.524;12.052;2023-03-14T04:38:00;95803.00;;;15.66;50.55
58367;BME280;57745;42.524;12.052;2023-03-14T04:40:26;95805.06;;;15.71;50.41
58367;BME280;57745;42.524;12.052;2023-03-14T04:42:52;95794.81;;;15.51;51.15
58367;BME280;57745;42.524;12.052;2023-03-14T04:45:17;95786.50;;;15.60;51.01
58367;BME280;57745;42.524;12.052;2023-03-14T04:47:42;95790.97;;;15.58;51.14
58367;BME280;57745;42.524;12.052;2023-03-14T04:50:09;95798.94;;;15.61;51.00
58367;BME280;57745;42.524;12.052;2023-03-14T04:52:34;95800.94;;;15.61;51.00
58367;BME280;57745;42.524;12.052;2023-03-14T04:55:00;95814.88;;;15.33;52.03
58367;BME280;57745;42.524;12.052;2023-03-14T04:57:25;95802.53;;;15.53;51.40
58367;BME280;57745;42.524;12.052;2023-03-14T04:59:50;95806.97;;;15.65;51.34
58367;BME280;57745;42.524;12.052;2023-03-14T05:02:16;95796.09;;;15.70;51.37
58367;BME280;57745;42.524;12.052;2023-03-14T05:04:41;95810.75;;;15.38;52.23
58367;BME280;57745;42.524;12.052;2023-03-14T05:07:07;95815.22;;;15.70;51.67
58367;BME280;57745;42.524;12.052;2023-03-14T05:09:32;95807.16;;;15.46;52.60
58367;BME280;57745;42.524;12.052;2023-03-14T05:11:57;95818.88;;;15.32;52.48
58367;BME280;57745;42.524;12.052;2023-03-14T05:14:23;95832.69;;;15.43;52.42
58367;BME280;57745;42.524;12.052;2023-03-14T05:16:48;95834.78;;;15.63;52.27
58367;BME280;57745;42.524;12.052;2023-03-14T05:19:14;95847.63;;;15.57;52.36
58367;BME280;57745;42.524;12.052;2023-03-14T05:21:39;95848.63;;;15.60;52.35
58367;BME280;57745;42.524;12.052;2023-03-14T05:24:05;95854.84;;;15.60;52.59
58367;BME280;57745;42.524;12.052;2023-03-14T05:26:30;95855.53;;;15.55;52.74
58367;BME280;57745;42.524;12.052;2023-03-14T05:28:56;95838.91;;;15.59;52.86
58367;BME280;57745;42.524;12.052;2023-03-14T05:31:21;95837.97;;;15.47;53.53
58367;BME280;57745;42.524;12.052;2023-03-14T05:33:47;95842.56;;;15.70;53.21
58367;BME280;57745;42.524;12.052;2023-03-14T05:36:15;95822.59;;;15.50;53.61
58367;BME280;57745;42.524;12.052;2023-03-14T05:38:40;95844.00;;;15.51;53.71
58367;BME280;57745;42.524;12.052;2023-03-14T05:41:06;95839.47;;;15.33;54.21
58367;BME280;57745;42.524;12.052;2023-03-14T05:43:31;95847.97;;;15.65;53.65
58367;BME280;57745;42.524;12.052;2023-03-14T05:45:57;95849.47;;;15.51;53.96
58367;BME280;57745;42.524;12.052;2023-03-14T05:48:22;95848.38;;;15.58;53.90
58367;BME280;57745;42.524;12.052;2023-03-14T05:50:53;95854.91;;;15.51;54.23
58367;BME280;57745;42.524;12.052;2023-03-14T05:53:19;95858.34;;;15.61;53.92
58367;BME280;57745;42.524;12.052;2023-03-14T05:55:44;95845.91;;;15.30;55.06
58367;BME280;57745;42.524;12.052;2023-03-14T05:58:10;95844.22;;;15.33;54.69
58367;BME280;57745;42.524;12.052;2023-03-14T06:00:35;95838.72;;;15.48;54.49
58367;BME280;57745;42.524;12.052;2023-03-14T06:03:00;95845.41;;;15.46;54.49
58367;BME280;57745;42.524;12.052;2023-03-14T06:05:26;95856.81;;;15.60;54.32
58367;BME280;57745;42.524;12.052;2023-03-14T06:07:51;95861.53;;;15.59;54.16
58367;BME280;57745;42.524;12.052;2023-03-14T06:10:17;95854.38;;;15.62;54.30
58367;BME280;57745;42.524;12.052;2023-03-14T06:12:42;95849.84;;;15.44;54.53
58367;BME280;57745;42.524;12.052;2023-03-14T06:15:08;95854.63;;;15.49;54.42
58367;BME280;57745;42.524;12.052;2023-03-14T06:17:33;95853.88;;;15.49;54.54
58367;BME280;57745;42.524;12.052;2023-03-14T06:19:59;95845.13;;;15.44;54.42
58367;BME280;57745;42.524;12.052;2023-03-14T06:22:24;95833.72;;;15.61;54.09
58367;BME280;57745;42.524;12.052;2023-03-14T06:24:50;95832.91;;;15.55;53.86
58367;BME280;57745;42.524;12.052;2023-03-14T06:27:15;95806.31;;;15.40;54.23
58367;BME280;57745;42.524;12.052;2023-03-14T06:29:41;95758.53;;;15.51;54.08
58367;BME280;57745;42.524;12.052;2023-03-14T06:32:06;95686.44;;;15.13;54.82
58367;BME280;57745;42.524;12.052;2023-03-14T06:34:31;95721.59;;;15.55;53.95
58367;BME280;57745;42.524;12.052;2023-03-14T06:36:57;95719.16;;;15.57;53.79
58367;BME280;57745;42.524;12.052;2023-03-14T06:39:22;95668.19;;;15.39;54.39
58367;BME280;57745;42.524;12.052;2023-03-14T06:41:48;95692.78;;;15.04;55.41
58367;BME280;57745;42.524;12.052;2023-03-14T06:44:15;95762.75;;;15.52;53.90
58367;BME280;57745;42.524;12.052;2023-03-14T06:46:40;95743.25;;;15.59;53.85
58367;BME280;57745;42.524;12.052;2023-03-14T06:49:06;95684.28;;;15.17;54.84
58367;BME280;57745;42.524;12.052;2023-03-14T06:51:31;95719.00;;;15.31;54.32
58367;BME280;57745;42.524;12.052;2023-03-14T06:53:57;95731.66;;;15.64;53.31
58367;BME280;57745;42.524;12.052;2023-03-14T06:56:22;95714.16;;;15.56;53.74
58367;BME280;57745;42.524;12.052;2023-03-14T06:58:48;95699.88;;;15.31;54.01
58367;BME280;57745;42.524;12.052;2023-03-14T07:01:21;95721.75;;;15.66;53.20
58367;BME280;57745;42.524;12.052;2023-03-14T07:03:47;95712.13;;;15.71;53.31
58367;BME280;57745;42.524;12.052;2023-03-14T07:06:13;95690.84;;;15.25;54.49
58367;BME280;57745;42.524;12.052;2023-03-14T07:08:38;95695.78;;;15.76;53.15
58367;BME280;57745;42.524;12.052;2023-03-14T07:11:04;95698.72;;;15.73;53.18
58367;BME280;57745;42.524;12.052;2023-03-14T07:13:30;95681.66;;;15.08;54.68
58367;BME280;57745;42.524;12.052;2023-03-14T07:15:55;95678.19;;;15.42;53.90
58367;BME280;57745;42.524;12.052;2023-03-14T07:18:21;95687.53;;;15.21;54.35
58367;BME280;57745;42.524;12.052;2023-03-14T07:20:47;95673.47;;;15.08;54.71
58367;BME280;57745;42.524;12.052;2023-03-14T07:23:12;95679.06;;;15.89;52.55
58367;BME280;57745;42.524;12.052;2023-03-14T07:25:38;95688.81;;;15.75;53.24
58367;BME280;57745;42.524;12.052;2023-03-14T07:28:03;95689.44;;;15.85;52.50
58367;BME280;57745;42.524;12.052;2023-03-14T07:30:29;95709.00;;;15.78;52.60
58367;BME280;57745;42.524;12.052;2023-03-14T07:32:54;95709.13;;;16.09;51.99
58367;BME280;57745;42.524;12.052;2023-03-14T07:35:20;95714.88;;;16.11;52.20
58367;BME280;57745;42.524;12.052;2023-03-14T07:37:45;95709.75;;;15.99;52.27
58367;BME280;57745;42.524;12.052;2023-03-14T07:40:11;95705.28;;;16.01;52.05
58367;BME280;57745;42.524;12.052;2023-03-14T07:42:40;95705.22;;;16.16;51.84
58367;BME280;57745;42.524;12.052;2023-03-14T07:45:06;95695.88;;;16.02;52.36
58367;BME280;57745;42.524;12.052;2023-03-14T07:47:32;95674.25;;;15.84;52.62
58367;BME280;57745;42.524;12.052;2023-03-14T07:49:57;95688.34;;;15.97;52.22
58367;BME280;57745;42.524;12.052;2023-03-14T07:52:23;95679.06;;;15.89;52.33
58367;BME280;57745;42.524;12.052;2023-03-14T07:54:49;95668.88;;;15.69;53.22
58367;BME280;57745;42.524;12.052;2023-03-14T07:57:14;95669.59;;;16.10;52.39
58367;BME280;57745;42.524;12.052;2023-03-14T07:59:40;95658.13;;;16.06;52.79
58367;BME280;57745;42.524;12.052;2023-03-14T08:02:05;95630.25;;;15.82;53.85
58367;BME280;57745;42.524;12.052;2023-03-14T08:04:36;95633.25;;;15.84;53.79
58367;BME280;57745;42.524;12.052;2023-03-14T08:07:01;95636.34;;;16.17;53.34
58367;BME280;57745;42.524;12.052;2023-03-14T08:09:28;95635.56;;;15.91;54.17
58367;BME280;57745;42.524;12.052;2023-03-14T08:11:53;95630.66;;;16.21;53.67
58367;BME280;57745;42.524;12.052;2023-03-14T08:14:19;95641.09;;;16.17;53.77
58367;BME280;57745;42.524;12.052;2023-03-14T08:16:45;95638.94;;;16.27;53.71
58367;BME280;57745;42.524;12.052;2023-03-14T08:19:10;95638.25;;;16.32;53.54
58367;BME280;57745;42.524;12.052;2023-03-14T08:21:36;95639.09;;;16.17;54.36
58367;BME280;57745;42.524;12.052;2023-03-14T08:24:01;95644.28;;;16.15;54.62
58367;BME280;57745;42.524;12.052;2023-03-14T08:26:27;95650.81;;;15.98;55.17
58367;BME280;57745;42.524;12.052;2023-03-14T08:28:52;95651.84;;;15.80;56.03
58367;BME280;57745;42.524;12.052;2023-03-14T08:31:18;95651.03;;;15.94;56.01
58367;BME280;57745;42.524;12.052;2023-03-14T08:33:43;95658.28;;;16.23;55.31
58367;BME280;57745;42.524;12.052;2023-03-14T08:36:09;95666.06;;;15.84;56.85
58367;BME280;57745;42.524;12.052;2023-03-14T08:38:34;95673.38;;;15.93;56.97
58367;BME280;57745;42.524;12.052;2023-03-14T08:41:01;95660.59;;;16.04;57.00
58367;BME280;57745;42.524;12.052;2023-03-14T08:43:28;95665.59;;;16.06;57.36
58367;BME280;57745;42.524;12.052;2023-03-14T08:45:57;95657.72;;;15.73;58.05
58367;BME280;57745;42.524;12.052;2023-03-14T08:48:23;95661.72;;;16.18;57.11
58367;BME280;57745;42.524;12.052;2023-03-14T08:50:48;95665.25;;;15.78;58.39
58367;BME280;57745;42.524;12.052;2023-03-14T08:53:14;95651.16;;;16.05;57.71
58367;BME280;57745;42.524;12.052;2023-03-14T08:55:39;95662.22;;;15.96;58.26
58367;BME280;57745;42.524;12.052;2023-03-14T08:58:04;95665.94;;;15.93;58.67
58367;BME280;57745;42.524;12.052;2023-03-14T09:00:30;95659.28;;;16.00;58.40
58367;BME280;57745;42.524;12.052;2023-03-14T09:02:56;95650.53;;;15.96;58.50
58367;BME280;57745;42.524;12.052;2023-03-14T09:05:21;95653.88;;;15.85;58.85
58367;BME280;57745;42.524;12.052;2023-03-14T09:07:46;95641.19;;;16.28;57.75
58367;BME280;57745;42.524;12.052;2023-03-14T09:10:12;95641.44;;;16.04;58.67
58367;BME280;57745;42.524;12.052;2023-03-14T09:12:37;95630.94;;;15.77;59.35
58367;BME280;57745;42.524;12.052;2023-03-14T09:15:03;95621.75;;;16.00;58.89
58367;BME280;57745;42.524;12.052;2023-03-14T09:17:29;95626.72;;;15.56;60.35
58367;BME280;57745;42.524;12.052;2023-03-14T09:19:55;95625.91;;;15.70;60.04
58367;BME280;57745;42.524;12.052;2023-03-14T09:22:20;95609.53;;;15.75;60.00
58367;BME280;57745;42.524;12.052;2023-03-14T09:24:46;95612.34;;;15.81;60.45
58367;BME280;57745;42.524;12.052;2023-03-14T09:27:12;95616.19;;;15.69;60.54
58367;BME280;57745;42.524;12.052;2023-03-14T09:29:37;95608.63;;;16.04;59.36
58367;BME280;57745;42.524;12.052;2023-03-14T09:32:03;95601.66;;;16.03;59.76
58367;BME280;57745;42.524;12.052;2023-03-14T09:34:29;95609.84;;;16.03;59.76
58367;BME280;57745;42.524;12.052;2023-03-14T09:36:54;95609.81;;;15.77;60.72
58367;BME280;57745;42.524;12.052;2023-03-14T09:39:20;95607.81;;;15.98;59.61
58367;BME280;57745;42.524;12.052;2023-03-14T09:41:51;95614.34;;;15.80;60.60
58367;BME280;57745;42.524;12.052;2023-03-14T09:44:29;95595.22;;;16.06;59.94
58367;BME280;57745;42.524;12.052;2023-03-14T09:46:57;95607.69;;;15.87;60.67
58367;BME280;57745;42.524;12.052;2023-03-14T09:49:34;95599.22;;;16.11;59.84
58367;BME280;57745;42.524;12.052;2023-03-14T09:52:02;95604.66;;;15.85;60.82
58367;BME280;57745;42.524;12.052;2023-03-14T09:54:38;95606.19;;;15.86;60.78
58367;BME280;57745;42.524;12.052;2023-03-14T09:57:08;95600.47;;;16.10;60.01
58367;BME280;57745;42.524;12.052;2023-03-14T09:59:36;95592.59;;;15.92;60.91
58367;BME280;57745;42.524;12.052;2023-03-14T10:04:41;95601.78;;;15.68;61.57
58367;BME280;57745;42.524;12.052;2023-03-14T10:07:23;95606.72;;;15.90;61.17
58367;BME280;57745;42.524;12.052;2023-03-14T10:09:51;95593.75;;;15.85;61.65
58367;BME280;57745;42.524;12.052;2023-03-14T10:12:18;95597.81;;;15.95;61.37
58367;BME280;57745;42.524;12.052;2023-03-14T10:14:51;95590.88;;;15.94;61.30
58367;BME280;57745;42.524;12.052;2023-03-14T10:17:20;95591.59;;;15.69;62.29
58367;BME280;57745;42.524;12.052;2023-03-14T10:19:54;95577.75;;;15.78;62.52
58367;BME280;57745;42.524;12.052;2023-03-14T10:22:22;95575.56;;;15.41;64.08
58367;BME280;57745;42.524;12.052;2023-03-14T10:24:55;95572.63;;;15.86;62.99
58367;BME280;57745;42.524;12.052;2023-03-14T10:27:33;95562.41;;;16.06;62.80
58367;BME280;57745;42.524;12.052;2023-03-14T10:32:53;95557.63;;;16.01;63.30
58367;BME280;57745;42.524;12.052;2023-03-14T10:35:21;95550.91;;;16.02;63.42
58367;BME280;57745;42.524;12.052;2023-03-14T10:40:18;95542.81;;;15.88;64.13
58367;BME280;57745;42.524;12.052;2023-03-14T10:42:45;95535.19;;;15.97;63.91
58367;BME280;57745;42.524;12.052;2023-03-14T10:45:41;95538.66;;;15.92;64.45
58367;BME280;57745;42.524;12.052;2023-03-14T10:50:48;95520.38;;;16.09;63.72
58367;BME280;57745;42.524;12.052;2023-03-14T10:53:16;95518.22;;;15.88;64.82
58367;BME280;57745;42.524;12.052;2023-03-14T10:55:44;95509.34;;;15.98;64.20
58367;BME280;57745;42.524;12.052;2023-03-14T10:58:26;95509.69;;;15.80;64.86
58367;BME280;57745;42.524;12.052;2023-03-14T11:03:32;95505.50;;;15.85;64.71
58367;BME280;57745;42.524;12.052;2023-03-14T11:06:09;95499.66;;;15.97;64.46
58367;BME280;57745;42.524;12.052;2023-03-14T11:11:22;95482.00;;;15.98;64.67
58367;BME280;57745;42.524;12.052;2023-03-14T11:24:47;95450.56;;;16.14;63.57
58367;BME280;57745;42.524;12.052;2023-03-14T11:27:23;95448.09;;;16.16;63.26
58367;BME280;57745;42.524;12.052;2023-03-14T11:30:19;95442.31;;;16.08;63.17
58367;BME280;57745;42.524;12.052;2023-03-14T11:35:24;95435.59;;;15.78;64.14
58367;BME280;57745;42.524;12.052;2023-03-14T11:40:38;95422.91;;;16.06;62.63
58367;BME280;57745;42.524;12.052;2023-03-14T11:43:15;95431.81;;;16.01;63.36
58367;BME280;57745;42.524;12.052;2023-03-14T11:45:43;95428.47;;;15.86;63.89
58367;BME280;57745;42.524;12.052;2023-03-14T11:48:20;95416.94;;;16.08;63.34
58367;BME280;57745;42.524;12.052;2023-03-14T11:50:52;95411.84;;;15.90;63.54
58367;BME280;57745;42.524;12.052;2023-03-14T11:53:25;95406.19;;;15.99;62.94
58367;BME280;57745;42.524;12.052;2023-03-14T11:55:55;95408.09;;;15.87;63.58
58367;BME280;57745;42.524;12.052;2023-03-14T11:58:25;95402.09;;;15.83;63.63
58367;BME280;57745;42.524;12.052;2023-03-14T12:00:54;95393.09;;;15.77;63.62
58367;BME280;57745;42.524;12.052;2023-03-14T12:03:49;95375.00;;;15.85;63.89
58367;BME280;57745;42.524;12.052;2023-03-14T12:06:24;95373.03;;;15.86;63.87
58367;BME280;57745;42.524;12.052;2023-03-14T12:08:55;95382.72;;;15.81;63.88
58367;BME280;57745;42.524;12.052;2023-03-14T12:16:56;95364.16;;;15.96;63.41
58367;BME280;57745;42.524;12.052;2023-03-14T12:19:28;95356.34;;;15.84;63.56
58367;BME280;57745;42.524;12.052;2023-03-14T12:22:07;95359.41;;;15.91;63.26
58367;BME280;57745;42.524;12.052;2023-03-14T12:24:36;95355.78;;;15.74;63.94
58367;BME280;57745;42.524;12.052;2023-03-14T12:27:05;95342.31;;;16.02;62.83
58367;BME280;57745;42.524;12.052;2023-03-14T12:29:31;95341.78;;;15.92;63.03
58367;BME280;57745;42.524;12.052;2023-03-14T12:34:59;95329.03;;;15.84;63.47
58367;BME280;57745;42.524;12.052;2023-03-14T12:37:34;95316.28;;;15.75;63.75
58367;BME280;57745;42.524;12.052;2023-03-14T12:40:32;95312.72;;;15.63;64.29
58367;BME280;57745;42.524;12.052;2023-03-14T12:43:01;95311.72;;;15.61;64.20
58367;BME280;57745;42.524;12.052;2023-03-14T12:45:33;95298.38;;;15.68;64.02
58367;BME280;57745;42.524;12.052;2023-03-14T12:48:19;95293.47;;;15.78;63.76
58367;BME280;57745;42.524;12.052;2023-03-14T12:50:54;95289.28;;;15.88;63.52
58367;BME280;57745;42.524;12.052;2023-03-14T12:59:21;95278.34;;;15.51;65.00
58367;BME280;57745;42.524;12.052;2023-03-14T13:01:59;95274.84;;;15.51;64.91
58367;BME280;57745;42.524;12.052;2023-03-14T13:04:42;95269.13;;;15.86;63.50
58367;BME280;57745;42.524;12.052;2023-03-14T13:15:34;95255.34;;;15.63;64.67
58367;BME280;57745;42.524;12.052;2023-03-14T13:18:26;95256.22;;;15.86;63.96
58367;BME280;57745;42.524;12.052;2023-03-14T13:23:31;95242.59;;;15.97;63.57
58367;BME280;57745;42.524;12.052;2023-03-14T13:25:57;95241.63;;;16.00;63.36
58367;BME280;57745;42.524;12.052;2023-03-14T13:28:27;95236.38;;;15.91;63.86
58367;BME280;57745;42.524;12.052;2023-03-14T13:31:00;95242.81;;;15.88;63.89
58367;BME280;57745;42.524;12.052;2023-03-14T13:33:25;95240.34;;;15.90;63.59
58367;BME280;57745;42.524;12.052;2023-03-14T13:35:56;95236.34;;;15.49;65.46
58367;BME280;57745;42.524;12.052;2023-03-14T13:38:24;95235.59;;;15.85;63.91
58367;BME280;57745;42.524;12.052;2023-03-14T13:40:51;95227.91;;;15.89;63.86
58367;BME280;57745;42.524;12.052;2023-03-14T13:46:12;95215.00;;;15.95;64.22
58367;BME280;57745;42.524;12.052;2023-03-14T13:49:01;95211.25;;;15.87;64.18
58367;BME280;57745;42.524;12.052;2023-03-14T13:51:27;95216.50;;;15.96;64.07
58367;BME280;57745;42.524;12.052;2023-03-14T13:53:56;95214.25;;;15.89;64.39
58367;BME280;57745;42.524;12.052;2023-03-14T13:56:28;95208.25;;;15.85;64.45
58367;BME280;57745;42.524;12.052;2023-03-14T13:58:59;95202.28;;;15.87;64.32
58367;BME280;57745;42.524;12.052;2023-03-14T14:01:28;95192.13;;;15.93;64.31